Time;durP1;ratioP1;P1;durP2;ratioP2;P2;SDS_P1;SDS_P2;PMS_P1;PMS_P2;Temp;Humidity;BMP_temperature;BMP_pressure;BME280_temperature;BME280_humidity;BME280_pressure;Samples;Min_cycle;Max_cycle;Signal;HPM_P1;HPM_P2
2022/08/17 00:00:47;;;;;;;25.65;15.77;;;;;;;;;;5019278;28;20037;-63
2022/08/17 00:03:17;;;;;;;28.25;14.10;;;;;;;;;;5028566;28;20147;-63
2022/08/17 00:05:46;;;;;;;21.63;13.93;;;;;;;;;;5024342;28;20037;-63
2022/08/17 00:08:14;;;;;;;22.95;13.23;;;;;;;;;;5022196;28;20033;-64
2022/08/17 00:10:40;;;;;;;22.05;13.45;;;;;;;;;;5028996;28;20061;-64
2022/08/17 00:13:20;;;;;;;21.38;14.32;;;;;;;;;;5029498;28;20026;-64
2022/08/17 00:15:46;;;;;;;29.42;15.50;;;;;;;;;;5023394;28;20041;-63
2022/08/17 00:18:12;;;;;;;23.33;14.02;;;;;;;;;;5020504;28;20053;-63
2022/08/17 00:20:37;;;;;;;23.00;13.15;;;;;;;;;;5021929;28;20056;-63
2022/08/17 00:23:09;;;;;;;25.15;14.40;;;;;;;;;;5027864;28;20057;-63
2022/08/17 00:25:35;;;;;;;22.33;13.88;;;;;;;;;;5009462;28;20080;-63
2022/08/17 00:28:01;;;;;;;19.60;12.52;;;;;;;;;;5024344;28;20198;-64
2022/08/17 00:30:27;;;;;;;22.50;13.65;;;;;;;;;;5026550;28;20036;-63
2022/08/17 00:32:52;;;;;;;22.50;13.88;;;;;;;;;;5029951;28;20033;-64
2022/08/17 00:35:22;;;;;;;21.88;14.35;;;;;;;;;;5016722;28;20599;-63
2022/08/17 00:37:49;;;;;;;20.52;13.45;;;;;;;;;;5027202;28;20052;-63
2022/08/17 00:40:15;;;;;;;30.50;15.20;;;;;;;;;;5028989;28;20195;-63
2022/08/17 00:42:42;;;;;;;21.50;13.05;;;;;;;;;;5030972;28;20117;-63
2022/08/17 00:45:10;;;;;;;23.85;13.75;;;;;;;;;;5026787;28;20103;-63
2022/08/17 00:47:35;;;;;;;25.67;14.52;;;;;;;;;;5030015;28;20024;-63
2022/08/17 00:50:02;;;;;;;25.55;14.15;;;;;;;;;;5029241;28;20034;-64
2022/08/17 00:52:33;;;;;;;26.80;15.93;;;;;;;;;;5028443;28;20414;-63
2022/08/17 00:55:00;;;;;;;30.52;16.60;;;;;;;;;;5026065;28;20041;-63
2022/08/17 00:57:33;;;;;;;27.20;16.08;;;;;;;;;;5031531;28;20029;-63
2022/08/17 01:00:09;;;;;;;26.73;17.05;;;;;;;;;;5020304;28;20022;-63
2022/08/17 01:02:38;;;;;;;26.98;15.68;;;;;;;;;;5028235;28;20036;-64
2022/08/17 01:05:06;;;;;;;26.15;16.35;;;;;;;;;;5026678;28;20756;-63
2022/08/17 01:07:31;;;;;;;25.48;15.98;;;;;;;;;;5025901;28;20109;-63
2022/08/17 01:09:59;;;;;;;27.90;15.13;;;;;;;;;;5028244;28;20144;-63
2022/08/17 01:12:24;;;;;;;28.58;16.80;;;;;;;;;;5029009;28;20029;-63
2022/08/17 01:14:50;;;;;;;26.23;15.20;;;;;;;;;;5027172;28;20403;-63
2022/08/17 01:17:15;;;;;;;28.63;16.83;;;;;;;;;;5021199;28;20083;-64
2022/08/17 01:19:42;;;;;;;27.00;15.07;;;;;;;;;;5014473;28;20041;-63
2022/08/17 01:22:10;;;;;;;28.40;15.98;;;;;;;;;;5042628;28;20033;-63
2022/08/17 01:24:39;;;;;;;25.00;14.88;;;;;;;;;;5021907;28;20128;-63
2022/08/17 01:27:07;;;;;;;27.88;15.32;;;;;;;;;;5012915;28;20022;-63
2022/08/17 01:29:34;;;;;;;30.38;15.82;;;;;;;;;;5022783;28;20033;-63
2022/08/17 01:32:03;;;;;;;25.33;14.90;;;;;;;;;;5027653;28;20588;-63
2022/08/17 01:34:29;;;;;;;26.60;14.60;;;;;;;;;;5026456;28;20060;-63
2022/08/17 01:36:55;;;;;;;27.98;15.60;;;;;;;;;;5023515;28;20590;-64
2022/08/17 01:39:23;;;;;;;28.85;17.33;;;;;;;;;;5024856;28;20029;-63
2022/08/17 01:41:52;;;;;;;29.98;15.48;;;;;;;;;;5030244;28;20048;-63
2022/08/17 01:44:19;;;;;;;33.35;17.23;;;;;;;;;;5023666;28;20739;-63
2022/08/17 01:46:44;;;;;;;30.10;16.42;;;;;;;;;;5024528;28;20477;-63
2022/08/17 01:49:11;;;;;;;26.27;15.25;;;;;;;;;;5027735;28;20599;-63
2022/08/17 01:51:37;;;;;;;31.42;16.77;;;;;;;;;;5027796;28;20037;-64
2022/08/17 01:54:08;;;;;;;29.83;17.17;;;;;;;;;;5027000;28;20061;-63
2022/08/17 01:56:37;;;;;;;26.42;16.13;;;;;;;;;;5018487;28;20045;-63
2022/08/17 01:59:03;;;;;;;30.08;16.42;;;;;;;;;;5021768;28;20025;-63
2022/08/17 02:01:31;;;;;;;27.92;16.65;;;;;;;;;;5028067;28;20510;-63
2022/08/17 02:03:57;;;;;;;27.10;16.48;;;;;;;;;;5026970;28;20040;-63
2022/08/17 02:06:23;;;;;;;29.50;17.00;;;;;;;;;;5018447;28;20593;-63
2022/08/17 02:08:48;;;;;;;26.55;16.40;;;;;;;;;;5021032;28;20502;-63
2022/08/17 02:11:17;;;;;;;28.60;16.95;;;;;;;;;;5023088;28;20060;-63
2022/08/17 02:13:44;;;;;;;27.88;15.30;;;;;;;;;;5024608;28;20132;-63
2022/08/17 02:16:10;;;;;;;27.38;15.65;;;;;;;;;;5025807;28;20029;-63
2022/08/17 02:18:36;;;;;;;26.08;14.38;;;;;;;;;;5023799;28;20033;-64
2022/08/17 02:21:01;;;;;;;23.55;13.88;;;;;;;;;;5025886;28;20026;-63
2022/08/17 02:23:31;;;;;;;21.00;12.10;;;;;;;;;;5025457;28;20045;-63
2022/08/17 02:25:58;;;;;;;18.30;11.88;;;;;;;;;;5024861;28;20561;-64
2022/08/17 02:28:23;;;;;;;17.05;9.48;;;;;;;;;;5023952;28;20057;-63
2022/08/17 02:30:49;;;;;;;21.48;12.05;;;;;;;;;;5022454;28;20057;-63
2022/08/17 02:33:14;;;;;;;18.08;11.65;;;;;;;;;;5025807;28;20057;-63
2022/08/17 02:35:41;;;;;;;18.42;11.02;;;;;;;;;;5023221;28;20078;-63
2022/08/17 02:38:07;;;;;;;19.00;10.68;;;;;;;;;;5026406;28;20033;-63
2022/08/17 02:40:33;;;;;;;16.27;10.05;;;;;;;;;;5020819;28;20096;-64
2022/08/17 02:42:59;;;;;;;16.67;10.15;;;;;;;;;;5027385;28;20033;-63
2022/08/17 02:45:25;;;;;;;17.83;10.63;;;;;;;;;;5029248;28;20033;-63
2022/08/17 02:47:51;;;;;;;14.45;10.50;;;;;;;;;;5026628;28;20072;-64
2022/08/17 02:50:20;;;;;;;15.43;10.40;;;;;;;;;;5022289;28;20036;-63
2022/08/17 02:52:47;;;;;;;15.05;9.40;;;;;;;;;;5026595;28;20041;-63
2022/08/17 02:55:16;;;;;;;12.70;8.98;;;;;;;;;;5027063;28;20045;-64
2022/08/17 02:57:42;;;;;;;19.20;8.57;;;;;;;;;;5011597;28;20045;-63
2022/08/17 03:00:11;;;;;;;14.38;8.52;;;;;;;;;;5007475;28;20025;-63
2022/08/17 03:02:42;;;;;;;13.88;8.32;;;;;;;;;;5026545;28;20501;-63
2022/08/17 03:05:09;;;;;;;13.00;8.13;;;;;;;;;;5025504;28;20030;-63
2022/08/17 03:07:36;;;;;;;14.07;8.40;;;;;;;;;;5020746;28;20055;-63
2022/08/17 03:10:02;;;;;;;12.85;8.18;;;;;;;;;;5020849;28;20091;-63
2022/08/17 03:12:31;;;;;;;14.52;8.93;;;;;;;;;;5027020;28;20034;-63
2022/08/17 03:14:57;;;;;;;12.65;8.68;;;;;;;;;;5026498;28;20083;-63
2022/08/17 03:17:22;;;;;;;14.45;8.80;;;;;;;;;;5022622;28;20022;-64
2022/08/17 03:19:48;;;;;;;15.02;8.63;;;;;;;;;;5024999;28;20045;-63
2022/08/17 03:22:13;;;;;;;14.80;8.88;;;;;;;;;;5027092;28;20116;-63
2022/08/17 03:24:39;;;;;;;14.40;8.25;;;;;;;;;;5027311;28;20025;-63
2022/08/17 03:27:04;;;;;;;14.23;8.65;;;;;;;;;;5021809;28;20029;-63
2022/08/17 03:29:29;;;;;;;13.68;8.80;;;;;;;;;;5027787;28;20434;-63
2022/08/17 03:31:55;;;;;;;13.73;9.43;;;;;;;;;;5024809;28;20534;-63
2022/08/17 03:34:20;;;;;;;14.38;9.70;;;;;;;;;;5014237;28;20038;-63
2022/08/17 03:36:45;;;;;;;20.13;9.27;;;;;;;;;;5026677;28;20519;-64
2022/08/17 03:39:11;;;;;;;15.68;10.35;;;;;;;;;;5026723;28;20029;-63
2022/08/17 03:41:36;;;;;;;23.60;12.15;;;;;;;;;;5027104;28;20088;-63
2022/08/17 03:44:02;;;;;;;22.73;13.90;;;;;;;;;;5024924;28;20043;-63
2022/08/17 03:57:35;;;;;;;22.42;14.00;;;;;;;;;;5004311;28;20439;-63
2022/08/17 04:00:01;;;;;;;29.17;15.63;;;;;;;;;;5027825;28;20022;-63
2022/08/17 04:02:32;;;;;;;27.05;15.15;;;;;;;;;;5027128;28;20017;-63
2022/08/17 04:04:58;;;;;;;26.42;14.45;;;;;;;;;;5024002;28;20042;-63
2022/08/17 04:07:26;;;;;;;27.00;14.60;;;;;;;;;;5026579;28;20044;-63
2022/08/17 04:09:52;;;;;;;22.80;14.35;;;;;;;;;;5024830;28;20036;-63
2022/08/17 04:12:19;;;;;;;24.67;14.40;;;;;;;;;;5020845;28;20415;-63
2022/08/17 04:14:45;;;;;;;25.00;14.73;;;;;;;;;;5010917;28;20030;-63
2022/08/17 04:17:11;;;;;;;24.27;15.13;;;;;;;;;;5026265;28;20052;-63
2022/08/17 04:19:36;;;;;;;21.95;13.55;;;;;;;;;;5022920;28;20059;-63
2022/08/17 04:22:04;;;;;;;22.38;13.65;;;;;;;;;;5029583;28;20037;-63
2022/08/17 04:24:30;;;;;;;21.98;12.57;;;;;;;;;;5029997;28;20109;-63
2022/08/17 04:26:56;;;;;;;21.55;12.63;;;;;;;;;;5024409;28;20033;-63
2022/08/17 04:29:21;;;;;;;29.48;14.40;;;;;;;;;;5029977;28;20071;-63
2022/08/17 04:31:47;;;;;;;25.08;14.68;;;;;;;;;;5029161;28;20042;-63
2022/08/17 04:34:12;;;;;;;22.00;13.57;;;;;;;;;;5029815;28;20033;-63
2022/08/17 04:36:38;;;;;;;22.27;14.23;;;;;;;;;;5028813;28;20087;-63
2022/08/17 04:39:03;;;;;;;25.95;14.23;;;;;;;;;;5029764;28;20032;-63
2022/08/17 04:44:13;;;;;;;24.17;13.98;;;;;;;;;;5028115;28;20044;-63
2022/08/17 04:46:38;;;;;;;24.00;13.68;;;;;;;;;;5035424;28;20026;-63
2022/08/17 04:49:07;;;;;;;24.02;14.52;;;;;;;;;;5025916;28;20032;-63
2022/08/17 04:51:39;;;;;;;23.85;15.52;;;;;;;;;;5024444;28;20038;-63
2022/08/17 04:54:12;;;;;;;24.15;14.43;;;;;;;;;;5021130;28;20462;-64
2022/08/17 04:56:38;;;;;;;25.13;13.65;;;;;;;;;;5019958;28;20108;-63
2022/08/17 04:59:10;;;;;;;24.30;15.18;;;;;;;;;;5028464;28;20514;-63
2022/08/17 05:01:39;;;;;;;25.50;13.68;;;;;;;;;;5023937;28;20033;-63
2022/08/17 05:04:07;;;;;;;25.80;14.55;;;;;;;;;;5030556;28;20525;-63
2022/08/17 05:06:32;;;;;;;27.10;15.25;;;;;;;;;;5026810;28;20025;-64
2022/08/17 05:08:59;;;;;;;27.38;14.68;;;;;;;;;;5027472;28;20075;-63
2022/08/17 05:11:28;;;;;;;23.65;14.02;;;;;;;;;;5024300;28;20026;-63
2022/08/17 05:13:55;;;;;;;25.95;15.60;;;;;;;;;;5010982;28;20388;-63
2022/08/17 05:16:22;;;;;;;26.63;14.23;;;;;;;;;;5014583;28;20499;-63
2022/08/17 05:18:47;;;;;;;26.30;14.35;;;;;;;;;;5016416;28;20041;-63
2022/08/17 05:21:13;;;;;;;27.80;14.20;;;;;;;;;;5028505;28;20017;-63
2022/08/17 05:23:39;;;;;;;24.13;14.13;;;;;;;;;;5029319;28;20535;-63
2022/08/17 05:26:06;;;;;;;25.52;14.45;;;;;;;;;;5025953;28;20091;-63
2022/08/17 05:28:31;;;;;;;24.52;14.15;;;;;;;;;;5028547;28;20037;-63
2022/08/17 05:31:00;;;;;;;27.10;14.70;;;;;;;;;;5025906;28;20034;-63
2022/08/17 05:33:28;;;;;;;27.05;14.32;;;;;;;;;;5028922;28;20117;-63
2022/08/17 05:35:57;;;;;;;27.17;14.02;;;;;;;;;;5028427;28;20025;-63
2022/08/17 05:38:24;;;;;;;23.90;13.48;;;;;;;;;;5026130;28;20478;-64
2022/08/17 05:40:51;;;;;;;23.40;14.15;;;;;;;;;;5026482;28;20034;-63
2022/08/17 05:43:16;;;;;;;26.30;14.38;;;;;;;;;;5029585;28;20499;-63
2022/08/17 05:46:06;;;;;;;23.27;13.48;;;;;;;;;;5028445;28;20047;-64
2022/08/17 05:48:41;;;;;;;21.05;13.02;;;;;;;;;;5027437;28;20029;-63
2022/08/17 05:51:21;;;;;;;22.55;13.30;;;;;;;;;;5027516;28;20112;-63
2022/08/17 05:53:58;;;;;;;22.80;12.85;;;;;;;;;;5028039;28;20508;-63
2022/08/17 05:56:44;;;;;;;22.90;12.80;;;;;;;;;;5022121;28;20080;-64
2022/08/17 05:59:29;;;;;;;21.60;12.90;;;;;;;;;;5027628;28;20125;-63
2022/08/17 06:02:00;;;;;;;20.08;12.50;;;;;;;;;;5025299;28;20036;-63
2022/08/17 06:05:03;;;;;;;22.70;13.45;;;;;;;;;;5021601;28;20120;-62
2022/08/17 06:07:48;;;;;;;24.42;14.25;;;;;;;;;;5011510;28;20040;-62
2022/08/17 06:10:45;;;;;;;27.65;14.75;;;;;;;;;;5021140;28;20049;-62
2022/08/17 06:13:30;;;;;;;20.88;13.48;;;;;;;;;;5021373;28;20052;-62
2022/08/17 06:16:03;;;;;;;24.38;13.95;;;;;;;;;;5022382;28;20049;-62
2022/08/17 06:18:42;;;;;;;19.75;11.75;;;;;;;;;;5025337;28;20045;-62
2022/08/17 06:21:11;;;;;;;22.40;13.10;;;;;;;;;;5025845;28;20132;-62
2022/08/17 06:23:54;;;;;;;23.48;13.57;;;;;;;;;;5016674;28;20034;-62
2022/08/17 06:26:23;;;;;;;25.53;13.87;;;;;;;;;;5023902;28;20136;-63
2022/08/17 06:29:07;;;;;;;22.70;13.15;;;;;;;;;;5023212;28;20041;-62
2022/08/17 06:31:37;;;;;;;24.23;13.45;;;;;;;;;;5013846;28;20037;-63
2022/08/17 06:34:05;;;;;;;22.67;13.52;;;;;;;;;;5024323;28;20129;-62
2022/08/17 06:37:01;;;;;;;21.88;13.32;;;;;;;;;;5011134;28;20041;-62
2022/08/17 06:40:04;;;;;;;22.95;13.10;;;;;;;;;;5021700;28;20080;-62
2022/08/17 06:42:52;;;;;;;22.23;13.60;;;;;;;;;;5022751;28;20049;-62
2022/08/17 06:45:30;;;;;;;21.17;13.35;;;;;;;;;;5023012;28;20426;-62
2022/08/17 06:48:05;;;;;;;23.13;14.07;;;;;;;;;;5021014;28;20029;-62
2022/08/17 06:50:47;;;;;;;22.63;13.93;;;;;;;;;;5001754;28;20077;-62
2022/08/17 06:53:37;;;;;;;23.85;13.77;;;;;;;;;;5014246;28;20049;-62
2022/08/17 06:56:40;;;;;;;22.45;13.77;;;;;;;;;;5026241;28;20072;-62
2022/08/17 06:59:09;;;;;;;24.98;14.32;;;;;;;;;;5023598;28;20044;-62
2022/08/17 07:01:38;;;;;;;22.17;12.32;;;;;;;;;;5026611;28;20030;-62
2022/08/17 07:04:12;;;;;;;24.65;12.85;;;;;;;;;;5038113;28;20037;-62
2022/08/17 07:06:50;;;;;;;25.70;13.80;;;;;;;;;;5046050;28;20039;-63
2022/08/17 07:09:28;;;;;;;22.23;13.55;;;;;;;;;;5029099;28;20033;-72
2022/08/17 07:12:15;;;;;;;22.92;13.25;;;;;;;;;;5025442;28;20044;-63
2022/08/17 07:15:18;;;;;;;25.35;13.27;;;;;;;;;;5026738;28;20034;-62
2022/08/17 07:17:46;;;;;;;27.95;14.05;;;;;;;;;;5022275;28;20069;-62
2022/08/17 07:20:16;;;;;;;23.75;12.88;;;;;;;;;;5023058;28;20038;-62
2022/08/17 07:22:57;;;;;;;22.50;12.90;;;;;;;;;;5021924;28;20095;-61
2022/08/17 07:25:22;;;;;;;19.90;11.55;;;;;;;;;;5024529;28;20133;-62
2022/08/17 07:27:52;;;;;;;18.95;11.82;;;;;;;;;;5022003;28;20117;-62
2022/08/17 07:30:26;;;;;;;23.73;12.75;;;;;;;;;;5023602;28;20034;-61
2022/08/17 07:33:00;;;;;;;21.85;12.57;;;;;;;;;;5035839;28;20025;-62
2022/08/17 07:35:28;;;;;;;22.67;13.00;;;;;;;;;;5049929;28;20510;-62
2022/08/17 07:38:13;;;;;;;24.80;14.18;;;;;;;;;;5034701;28;20589;-62
2022/08/17 07:41:03;;;;;;;27.85;13.75;;;;;;;;;;5027835;28;20747;-60
2022/08/17 07:43:38;;;;;;;23.08;13.63;;;;;;;;;;5027417;28;20084;-66
2022/08/17 07:49:09;;;;;;;21.67;13.00;;;;;;;;;;5017808;28;20552;-67
2022/08/17 07:51:43;;;;;;;22.17;13.23;;;;;;;;;;5014725;28;20041;-66
2022/08/17 07:54:14;;;;;;;23.30;13.82;;;;;;;;;;5024128;28;20037;-67
2022/08/17 07:57:02;;;;;;;24.58;13.00;;;;;;;;;;5027294;28;20523;-67
2022/08/17 07:59:33;;;;;;;24.92;13.68;;;;;;;;;;5028560;28;20064;-67
2022/08/17 08:02:03;;;;;;;22.73;13.95;;;;;;;;;;5029057;28;20076;-67
2022/08/17 08:04:35;;;;;;;31.77;15.98;;;;;;;;;;5025990;28;20558;-67
2022/08/17 08:07:04;;;;;;;29.53;17.10;;;;;;;;;;5017548;28;20037;-67
2022/08/17 08:09:31;;;;;;;29.30;17.05;;;;;;;;;;5027322;28;20110;-66
2022/08/17 08:11:57;;;;;;;30.88;17.77;;;;;;;;;;5012268;28;20553;-66
2022/08/17 08:14:30;;;;;;;25.30;14.43;;;;;;;;;;5014848;28;20025;-67
2022/08/17 08:17:02;;;;;;;32.93;16.90;;;;;;;;;;5038792;23;20079;-81
2022/08/17 08:19:30;;;;;;;33.10;18.17;;;;;;;;;;5031261;28;20030;-81
2022/08/17 08:22:17;;;;;;;34.03;17.77;;;;;;;;;;5036950;28;20998;-80
2022/08/17 08:25:06;;;;;;;28.70;16.38;;;;;;;;;;5045744;28;20413;-80
2022/08/17 08:28:04;;;;;;;27.08;14.90;;;;;;;;;;5048532;28;20025;-81
2022/08/17 08:30:36;;;;;;;32.17;17.30;;;;;;;;;;5045655;28;20033;-81
2022/08/17 08:33:20;;;;;;;28.15;16.70;;;;;;;;;;5047529;28;20021;-82
2022/08/17 08:35:52;;;;;;;26.85;16.27;;;;;;;;;;5059392;28;20041;-81
2022/08/17 08:38:46;;;;;;;27.85;16.33;;;;;;;;;;5044255;28;20485;-81
2022/08/17 08:41:19;;;;;;;;;;;;;;;;;;5043325;28;20021;-81
2022/08/17 08:43:45;;;;;;;;;;;;;;;;;;5040857;28;19925;-81
2022/08/17 08:46:29;;;;;;;27.63;15.20;;;;;;;;;;5039752;28;19946;-81
2022/08/17 08:49:30;;;;;;;30.33;16.83;;;;;;;;;;5045472;28;20044;-81
2022/08/17 08:51:58;;;;;;;25.23;15.48;;;;;;;;;;5047006;28;20041;-82
2022/08/17 08:54:49;;;;;;;24.38;15.57;;;;;;;;;;5045058;28;20363;-82
2022/08/17 08:57:20;;;;;;;25.05;14.13;;;;;;;;;;5047715;28;20506;-82
2022/08/17 08:59:45;;;;;;;26.27;15.40;;;;;;;;;;5046190;28;20041;-83
2022/08/17 09:02:27;;;;;;;28.55;16.17;;;;;;;;;;5046253;28;20025;-81
2022/08/17 09:05:20;;;;;;;30.42;16.23;;;;;;;;;;5052058;28;20033;-82
2022/08/17 09:07:58;;;;;;;23.08;13.82;;;;;;;;;;5045009;28;20043;-82
2022/08/17 09:10:24;;;;;;;25.20;14.35;;;;;;;;;;5050285;28;20418;-82
2022/08/17 09:12:52;;;;;;;28.90;16.42;;;;;;;;;;5046918;28;20036;-84
2022/08/17 09:15:26;;;;;;;24.23;13.93;;;;;;;;;;5047644;28;20033;-83
2022/08/17 09:18:25;;;;;;;20.83;12.82;;;;;;;;;;5059921;28;20056;-84
2022/08/17 09:21:06;;;;;;;22.95;12.88;;;;;;;;;;5052516;28;20552;-85
2022/08/17 09:23:48;;;;;;;20.60;13.15;;;;;;;;;;5052594;28;20120;-87
2022/08/17 09:26:26;;;;;;;22.60;12.70;;;;;;;;;;5053008;28;20111;-89
2022/08/17 09:29:00;;;;;;;21.40;13.23;;;;;;;;;;5049230;28;20044;-89
2022/08/17 09:31:51;;;;;;;17.65;11.63;;;;;;;;;;5050024;28;20083;-86
2022/08/17 09:34:22;;;;;;;18.98;11.68;;;;;;;;;;5061128;28;20028;-86
2022/08/17 09:36:51;;;;;;;22.73;12.32;;;;;;;;;;5045176;28;20041;-93
2022/08/17 09:39:26;;;;;;;20.20;12.98;;;;;;;;;;5048956;28;20029;-96
2022/08/17 09:42:25;;;;;;;18.95;12.45;;;;;;;;;;5049540;28;20519;-86
2022/08/17 09:45:00;;;;;;;22.85;14.57;;;;;;;;;;5052733;28;20060;-86
2022/08/17 09:47:31;;;;;;;24.05;14.13;;;;;;;;;;5054838;28;20487;-87
2022/08/17 09:50:10;;;;;;;25.52;13.65;;;;;;;;;;5057020;28;20570;-82
2022/08/17 09:52:35;;;;;;;21.33;13.02;;;;;;;;;;5044520;28;20025;-84
2022/08/17 09:55:03;;;;;;;19.83;12.30;;;;;;;;;;5045920;28;20161;-83
2022/08/17 09:57:50;;;;;;;22.25;13.75;;;;;;;;;;5039346;28;20069;-83
2022/08/17 10:00:25;;;;;;;21.73;13.60;;;;;;;;;;5043731;28;20332;-82
2022/08/17 10:02:59;;;;;;;24.02;13.45;;;;;;;;;;5047248;28;20223;-84
2022/08/17 10:05:45;;;;;;;21.40;12.90;;;;;;;;;;5056215;28;20033;-85
2022/08/17 10:08:23;;;;;;;18.27;11.77;;;;;;;;;;5063467;28;20071;-85
2022/08/17 10:10:57;;;;;;;20.95;12.90;;;;;;;;;;5057316;28;20020;-83
2022/08/17 10:13:34;;;;;;;23.48;13.85;;;;;;;;;;5041051;28;20039;-84
2022/08/17 10:16:27;;;;;;;20.92;12.57;;;;;;;;;;5038440;28;20685;-84
2022/08/17 10:19:08;;;;;;;24.45;12.80;;;;;;;;;;5049347;28;20044;-86
2022/08/17 10:27:18;;;;;;;25.70;12.45;;;;;;;;;;5045272;28;20040;-85
2022/08/17 10:29:54;;;;;;;20.00;12.13;;;;;;;;;;5045128;28;20665;-85
2022/08/17 10:32:25;;;;;;;20.48;12.27;;;;;;;;;;5054820;28;20029;-83
2022/08/17 10:35:09;;;;;;;19.90;12.88;;;;;;;;;;5045638;28;20127;-84
2022/08/17 10:37:47;;;;;;;19.25;11.95;;;;;;;;;;5062167;28;20568;-83
2022/08/17 10:40:33;;;;;;;25.10;11.23;;;;;;;;;;5056780;28;20167;-84
2022/08/17 10:43:13;;;;;;;19.73;12.30;;;;;;;;;;5045370;28;20032;-84
2022/08/17 10:46:17;;;;;;;19.73;11.43;;;;;;;;;;5037645;28;20025;-87
2022/08/17 10:48:43;;;;;;;19.70;11.80;;;;;;;;;;5038341;28;20021;-86
2022/08/17 10:51:36;;;;;;;22.05;12.63;;;;;;;;;;5048480;28;20525;-84
2022/08/17 10:54:25;;;;;;;21.98;12.57;;;;;;;;;;5063848;28;20037;-88
2022/08/17 10:56:53;;;;;;;20.13;11.85;;;;;;;;;;5065076;28;20037;-84
2022/08/17 10:59:34;;;;;;;20.88;11.50;;;;;;;;;;5052697;28;20028;-87
2022/08/17 11:02:15;;;;;;;21.77;11.63;;;;;;;;;;5051952;28;20039;-87
2022/08/17 11:05:07;;;;;;;21.30;12.50;;;;;;;;;;5049824;28;20107;-89
2022/08/17 11:07:40;;;;;;;20.95;11.85;;;;;;;;;;5072197;28;20028;-87
2022/08/17 11:10:20;;;;;;;20.88;11.93;;;;;;;;;;5065519;28;20148;-88
2022/08/17 11:13:00;;;;;;;19.88;11.82;;;;;;;;;;5055905;28;20033;-87
2022/08/17 11:15:57;;;;;;;17.45;10.73;;;;;;;;;;5050991;28;20509;-85
2022/08/17 11:18:44;;;;;;;22.05;12.55;;;;;;;;;;5049212;28;20080;-87
2022/08/17 11:21:38;;;;;;;18.38;10.55;;;;;;;;;;5048754;28;20029;-88
2022/08/17 11:24:15;;;;;;;17.95;10.77;;;;;;;;;;5056131;28;20557;-87
2022/08/17 11:26:46;;;;;;;16.38;10.45;;;;;;;;;;5050176;28;20032;-84
2022/08/17 11:29:28;;;;;;;17.35;10.30;;;;;;;;;;5066083;28;20024;-88
2022/08/17 11:32:29;;;;;;;17.20;10.93;;;;;;;;;;5053406;28;20028;-87
2022/08/17 11:35:20;;;;;;;16.15;10.18;;;;;;;;;;5048366;28;20033;-87
2022/08/17 11:37:50;;;;;;;18.70;9.75;;;;;;;;;;5058692;28;20024;-86
2022/08/17 11:40:31;;;;;;;17.73;11.20;;;;;;;;;;5064270;28;20021;-86
2022/08/17 11:43:22;;;;;;;18.92;12.02;;;;;;;;;;5051291;28;20033;-86
2022/08/17 11:46:17;;;;;;;18.45;11.65;;;;;;;;;;5044354;28;20064;-91
2022/08/17 11:52:00;;;;;;;23.00;11.57;;;;;;;;;;5051172;28;20740;-87
2022/08/17 11:54:37;;;;;;;20.27;11.68;;;;;;;;;;5048333;28;20041;-87
2022/08/17 11:57:24;;;;;;;22.00;11.40;;;;;;;;;;5038358;28;20056;-88
2022/08/17 11:59:59;;;;;;;19.80;11.18;;;;;;;;;;5045243;28;20395;-89
2022/08/17 12:02:33;;;;;;;18.35;10.50;;;;;;;;;;5058998;28;20055;-88
2022/08/17 12:05:26;;;;;;;18.13;10.70;;;;;;;;;;5051402;28;20039;-89
2022/08/17 12:08:30;;;;;;;18.77;10.93;;;;;;;;;;4999348;28;20131;-90
2022/08/17 12:11:37;;;;;;;21.10;10.93;;;;;;;;;;5043810;28;20080;-91
2022/08/17 12:14:07;;;;;;;17.15;10.45;;;;;;;;;;5021565;28;20044;-87
2022/08/17 12:16:37;;;;;;;21.20;10.73;;;;;;;;;;5049481;28;20161;-90
2022/08/17 12:19:20;;;;;;;19.42;11.02;;;;;;;;;;5042990;28;20573;-89
2022/08/17 12:22:10;;;;;;;16.88;9.73;;;;;;;;;;5041556;28;20033;-87
2022/08/17 12:24:53;;;;;;;17.42;10.27;;;;;;;;;;5049797;28;20045;-86
2022/08/17 12:27:23;;;;;;;16.70;8.85;;;;;;;;;;5041543;28;20064;-85
2022/08/17 12:29:49;;;;;;;15.93;9.55;;;;;;;;;;5040626;28;20041;-86
2022/08/17 12:32:18;;;;;;;14.70;9.27;;;;;;;;;;5035680;28;20082;-87
2022/08/17 12:34:46;;;;;;;13.95;8.43;;;;;;;;;;5044457;28;20398;-88
2022/08/17 12:37:19;;;;;;;14.93;8.63;;;;;;;;;;5040361;28;20064;-87
2022/08/17 12:40:05;;;;;;;14.68;8.70;;;;;;;;;;5046702;28;20037;-90
2022/08/17 12:42:36;;;;;;;13.38;8.10;;;;;;;;;;5040712;28;20462;-89
2022/08/17 12:45:05;;;;;;;14.02;8.43;;;;;;;;;;5046395;28;20037;-88
2022/08/17 12:47:35;;;;;;;14.20;9.27;;;;;;;;;;5052806;28;20032;-92
2022/08/17 12:50:12;;;;;;;14.52;8.45;;;;;;;;;;5038378;28;20453;-89
2022/08/17 12:52:42;;;;;;;12.93;8.30;;;;;;;;;;5019075;28;20502;-91
2022/08/17 12:55:20;;;;;;;13.32;8.38;;;;;;;;;;5043611;28;20479;-91
2022/08/17 12:57:54;;;;;;;14.13;8.25;;;;;;;;;;5044246;28;20124;-91
2022/08/17 13:00:32;;;;;;;15.60;8.75;;;;;;;;;;5043641;28;20139;-90
2022/08/17 13:03:01;;;;;;;12.95;7.88;;;;;;;;;;5045999;28;20110;-91
2022/08/17 13:05:36;;;;;;;15.27;8.15;;;;;;;;;;5050228;28;20039;-90
2022/08/17 13:08:24;;;;;;;11.27;7.35;;;;;;;;;;5040202;28;20175;-90
2022/08/17 13:10:57;;;;;;;13.90;7.82;;;;;;;;;;5044675;28;21061;-89
2022/08/17 13:13:26;;;;;;;12.85;8.23;;;;;;;;;;5043974;28;20128;-89
2022/08/17 13:15:57;;;;;;;13.00;7.97;;;;;;;;;;5043430;28;20025;-92
2022/08/17 13:18:51;;;;;;;15.75;8.50;;;;;;;;;;5041677;28;20469;-90
2022/08/17 13:21:25;;;;;;;13.20;7.97;;;;;;;;;;5041144;28;20106;-87
2022/08/17 13:24:12;;;;;;;11.88;8.07;;;;;;;;;;5027563;28;20041;-89
2022/08/17 13:26:43;;;;;;;12.80;7.85;;;;;;;;;;5045138;28;20112;-88
2022/08/17 13:29:32;;;;;;;10.15;7.22;;;;;;;;;;5038341;28;20028;-88
2022/08/17 13:32:05;;;;;;;12.80;7.90;;;;;;;;;;5048875;28;20032;-89
2022/08/17 13:34:35;;;;;;;11.15;7.55;;;;;;;;;;5044964;28;20518;-89
2022/08/17 13:37:27;;;;;;;12.77;7.82;;;;;;;;;;5049353;28;20747;-90
2022/08/17 13:39:56;;;;;;;13.55;8.18;;;;;;;;;;5043470;28;20595;-89
2022/08/17 13:42:54;;;;;;;14.50;7.40;;;;;;;;;;5044999;28;20037;-91
2022/08/17 13:45:29;;;;;;;17.63;8.55;;;;;;;;;;5044363;28;20306;-89
2022/08/17 13:48:08;;;;;;;13.70;8.23;;;;;;;;;;5049495;28;20060;-90
2022/08/17 13:50:39;;;;;;;12.90;8.02;;;;;;;;;;5043363;28;20033;-90
2022/08/17 13:53:21;;;;;;;11.90;7.28;;;;;;;;;;5041592;28;20478;-90
2022/08/17 13:55:50;;;;;;;12.80;7.75;;;;;;;;;;5036877;28;20122;-89
2022/08/17 13:58:25;;;;;;;13.50;7.57;;;;;;;;;;5044685;28;20040;-87
2022/08/17 14:00:51;;;;;;;11.07;7.10;;;;;;;;;;5032582;28;20042;-85
2022/08/17 14:03:18;;;;;;;14.48;7.47;;;;;;;;;;5047122;28;20395;-90
2022/08/17 14:05:44;;;;;;;14.65;7.93;;;;;;;;;;5043700;28;20041;-91
2022/08/17 14:08:12;;;;;;;10.68;7.47;;;;;;;;;;5056756;28;20121;-92
2022/08/17 14:10:37;;;;;;;14.18;7.47;;;;;;;;;;5047683;28;20025;-88
2022/08/17 14:13:04;;;;;;;14.48;8.45;;;;;;;;;;5060104;28;20039;-93
2022/08/17 14:15:31;;;;;;;13.07;8.48;;;;;;;;;;5045663;28;20043;-95
2022/08/17 14:17:57;;;;;;;14.95;8.88;;;;;;;;;;5043658;28;20075;-93
2022/08/17 14:20:23;;;;;;;12.02;8.43;;;;;;;;;;5060632;28;20044;-91
2022/08/17 14:22:52;;;;;;;13.55;8.20;;;;;;;;;;5052142;28;20024;-94
2022/08/17 14:25:25;;;;;;;14.18;8.55;;;;;;;;;;5050679;28;20029;-93
2022/08/17 14:27:50;;;;;;;;;;;;;;;;;;5052828;28;20040;-94
2022/08/17 14:30:16;;;;;;;12.95;8.13;;;;;;;;;;5049816;28;19935;-92
2022/08/17 14:32:43;;;;;;;13.65;8.85;;;;;;;;;;5069852;28;20477;-95
2022/08/17 14:35:12;;;;;;;14.85;9.10;;;;;;;;;;5054237;28;20013;-92
2022/08/17 14:37:37;;;;;;;15.43;8.90;;;;;;;;;;5055046;28;20024;-94
2022/08/17 14:40:09;;;;;;;13.13;8.05;;;;;;;;;;5044805;28;20033;-93
2022/08/17 14:42:36;;;;;;;13.98;8.63;;;;;;;;;;5047773;28;20037;-93
2022/08/17 14:45:04;;;;;;;12.32;8.38;;;;;;;;;;5043522;28;20052;-89
2022/08/17 14:47:30;;;;;;;13.43;8.63;;;;;;;;;;5042747;28;20713;-91
2022/08/17 14:49:56;;;;;;;12.38;8.18;;;;;;;;;;5050907;28;20036;-92
2022/08/17 14:52:21;;;;;;;15.77;8.65;;;;;;;;;;5044547;28;20110;-89
2022/08/17 14:54:50;;;;;;;13.85;8.40;;;;;;;;;;5050192;28;20037;-89
2022/08/17 14:57:16;;;;;;;15.48;8.77;;;;;;;;;;5066906;28;20036;-90
2022/08/17 14:59:42;;;;;;;14.38;8.38;;;;;;;;;;5069409;28;20040;-91
2022/08/17 15:02:09;;;;;;;16.15;8.57;;;;;;;;;;5056208;28;20081;-92
2022/08/17 15:04:35;;;;;;;15.05;9.38;;;;;;;;;;5049419;28;20044;-92
2022/08/17 15:07:02;;;;;;;16.30;9.15;;;;;;;;;;5047223;28;20123;-90
2022/08/17 15:09:28;;;;;;;14.43;8.85;;;;;;;;;;5042183;28;20029;-89
2022/08/17 15:11:54;;;;;;;14.52;9.35;;;;;;;;;;5051311;28;20041;-85
2022/08/17 15:14:19;;;;;;;13.43;9.52;;;;;;;;;;5039305;28;20021;-86
2022/08/17 15:16:45;;;;;;;15.65;9.05;;;;;;;;;;5037327;28;20040;-86
2022/08/17 15:19:10;;;;;;;13.93;8.85;;;;;;;;;;5036000;28;20048;-85
2022/08/17 15:21:35;;;;;;;13.93;9.73;;;;;;;;;;5037461;28;20037;-87